sensor_id;sensor_type;location;lat;lon;timestamp;pressure;altitude;pressure_sealevel;temperature;humidity
65897;BME280;52677;50.898;10.854;2023-04-06T00:01:43;98872.28;;;-2.63;100.00
65897;BME280;52677;50.898;10.854;2023-04-06T00:03:43;98873.41;;;-2.69;100.00
65897;BME280;52677;50.898;10.854;2023-04-06T00:05:44;98872.34;;;-2.73;100.00
65897;BME280;52677;50.898;10.854;2023-04-06T00:07:44;98872.59;;;-2.70;100.00
65897;BME280;52677;50.898;10.854;2023-04-06T00:09:45;98864.47;;;-2.70;100.00
65897;BME280;52677;50.898;10.854;2023-04-06T00:11:45;98860.09;;;-2.66;100.00
65897;BME280;52677;50.898;10.854;2023-04-06T00:13:45;98865.78;;;-2.67;100.00
65897;BME280;52677;50.898;10.854;2023-04-06T00:15:46;98860.97;;;-2.70;100.00
65897;BME280;52677;50.898;10.854;2023-04-06T00:17:46;98855.56;;;-2.75;100.00
65897;BME280;52677;50.898;10.854;2023-04-06T00:19:46;98854.53;;;-2.79;100.00
65897;BME280;52677;50.898;10.854;2023-04-06T00:21:46;98846.13;;;-2.83;100.00
65897;BME280;52677;50.898;10.854;2023-04-06T00:23:47;98852.34;;;-2.83;100.00
65897;BME280;52677;50.898;10.854;2023-04-06T00:25:47;98847.22;;;-2.84;100.00
65897;BME280;52677;50.898;10.854;2023-04-06T00:27:48;98846.19;;;-2.88;100.00
65897;BME280;52677;50.898;10.854;2023-04-06T00:29:48;98850.22;;;-2.86;100.00
65897;BME280;52677;50.898;10.854;2023-04-06T00:31:48;98854.63;;;-2.95;100.00
65897;BME280;52677;50.898;10.854;2023-04-06T00:33:48;98845.97;;;-2.97;100.00
65897;BME280;52677;50.898;10.854;2023-04-06T00:35:49;98853.53;;;-2.94;100.00
65897;BME280;52677;50.898;10.854;2023-04-06T00:37:50;98843.22;;;-2.92;100.00
65897;BME280;52677;50.898;10.854;2023-04-06T00:39:50;98850.00;;;-2.89;100.00
65897;BME280;52677;50.898;10.854;2023-04-06T00:41:54;98842.13;;;-2.91;100.00
65897;BME280;52677;50.898;10.854;2023-04-06T00:43:55;98847.03;;;-2.93;100.00
65897;BME280;52677;50.898;10.854;2023-04-06T00:45:55;98842.13;;;-2.91;100.00
65897;BME280;52677;50.898;10.854;2023-04-06T00:47:56;98842.91;;;-2.85;100.00
65897;BME280;52677;50.898;10.854;2023-04-06T00:49:56;98836.09;;;-2.83;100.00
65897;BME280;52677;50.898;10.854;2023-04-06T00:51:57;98832.88;;;-2.85;100.00
65897;BME280;52677;50.898;10.854;2023-04-06T00:53:57;98842.06;;;-2.80;100.00
65897;BME280;52677;50.898;10.854;2023-04-06T00:55:57;98838.81;;;-2.83;100.00
65897;BME280;52677;50.898;10.854;2023-04-06T00:57:58;98830.47;;;-2.86;100.00
65897;BME280;52677;50.898;10.854;2023-04-06T01:00:00;98826.94;;;-2.87;100.00
65897;BME280;52677;50.898;10.854;2023-04-06T01:02:00;98815.84;;;-2.90;100.00
65897;BME280;52677;50.898;10.854;2023-04-06T01:04:01;98831.06;;;-2.94;100.00
65897;BME280;52677;50.898;10.854;2023-04-06T01:06:02;98828.94;;;-2.97;100.00
65897;BME280;52677;50.898;10.854;2023-04-06T01:08:03;98831.34;;;-2.96;100.00
65897;BME280;52677;50.898;10.854;2023-04-06T01:10:04;98819.94;;;-2.93;100.00
65897;BME280;52677;50.898;10.854;2023-04-06T01:12:05;98822.41;;;-2.96;100.00
65897;BME280;52677;50.898;10.854;2023-04-06T01:14:05;98821.63;;;-3.02;100.00
65897;BME280;52677;50.898;10.854;2023-04-06T01:16:06;98820.03;;;-3.03;100.00
65897;BME280;52677;50.898;10.854;2023-04-06T01:18:08;98818.47;;;-3.14;100.00
65897;BME280;52677;50.898;10.854;2023-04-06T01:20:10;98813.09;;;-3.24;100.00
65897;BME280;52677;50.898;10.854;2023-04-06T01:22:17;98827.19;;;-3.27;100.00
65897;BME280;52677;50.898;10.854;2023-04-06T01:24:18;98827.50;;;-3.34;100.00
65897;BME280;52677;50.898;10.854;2023-04-06T01:26:18;98820.19;;;-3.33;100.00
65897;BME280;52677;50.898;10.854;2023-04-06T01:28:18;98815.06;;;-3.35;100.00
65897;BME280;52677;50.898;10.854;2023-04-06T01:30:19;98814.56;;;-3.42;100.00
65897;BME280;52677;50.898;10.854;2023-04-06T01:32:19;98818.06;;;-3.42;100.00
65897;BME280;52677;50.898;10.854;2023-04-06T01:34:20;98823.47;;;-3.36;100.00
65897;BME280;52677;50.898;10.854;2023-04-06T01:36:22;98816.16;;;-3.41;100.00
65897;BME280;52677;50.898;10.854;2023-04-06T01:38:22;98825.41;;;-3.47;100.00
65897;BME280;52677;50.898;10.854;2023-04-06T01:40:23;98818.91;;;-3.46;100.00
65897;BME280;52677;50.898;10.854;2023-04-06T01:42:23;98819.72;;;-3.46;100.00
65897;BME280;52677;50.898;10.854;2023-04-06T01:44:23;98813.28;;;-3.55;100.00
65897;BME280;52677;50.898;10.854;2023-04-06T01:46:24;98808.94;;;-3.56;100.00
65897;BME280;52677;50.898;10.854;2023-04-06T01:48:25;98814.09;;;-3.54;100.00
65897;BME280;52677;50.898;10.854;2023-04-06T01:50:26;98810.81;;;-3.51;100.00
65897;BME280;52677;50.898;10.854;2023-04-06T01:52:26;98815.66;;;-3.43;100.00
65897;BME280;52677;50.898;10.854;2023-04-06T01:54:27;98806.19;;;-3.46;100.00
65897;BME280;52677;50.898;10.854;2023-04-06T01:56:27;98815.34;;;-3.42;100.00
65897;BME280;52677;50.898;10.854;2023-04-06T01:58:27;98803.78;;;-3.52;100.00
65897;BME280;52677;50.898;10.854;2023-04-06T02:00:28;98814.03;;;-3.49;100.00
65897;BME280;52677;50.898;10.854;2023-04-06T02:02:28;98809.19;;;-3.47;100.00
65897;BME280;52677;50.898;10.854;2023-04-06T02:04:28;98809.75;;;-3.55;100.00
65897;BME280;52677;50.898;10.854;2023-04-06T02:06:29;98815.75;;;-3.63;100.00
65897;BME280;52677;50.898;10.854;2023-04-06T02:08:30;98807.94;;;-3.70;100.00
65897;BME280;52677;50.898;10.854;2023-04-06T02:10:31;98804.94;;;-3.63;100.00
65897;BME280;52677;50.898;10.854;2023-04-06T02:12:31;98810.34;;;-3.69;100.00
65897;BME280;52677;50.898;10.854;2023-04-06T02:14:32;98812.25;;;-3.74;100.00
65897;BME280;52677;50.898;10.854;2023-04-06T02:16:33;98807.66;;;-3.74;100.00
65897;BME280;52677;50.898;10.854;2023-04-06T02:18:33;98803.34;;;-3.75;100.00
65897;BME280;52677;50.898;10.854;2023-04-06T02:20:33;98804.69;;;-3.72;100.00
65897;BME280;52677;50.898;10.854;2023-04-06T02:22:37;98796.31;;;-3.76;100.00
65897;BME280;52677;50.898;10.854;2023-04-06T02:24:37;98806.09;;;-3.85;100.00
65897;BME280;52677;50.898;10.854;2023-04-06T02:26:37;98803.38;;;-3.85;100.00
65897;BME280;52677;50.898;10.854;2023-04-06T02:28:38;98792.00;;;-3.82;100.00
65897;BME280;52677;50.898;10.854;2023-04-06T02:30:39;98793.38;;;-3.79;100.00
65897;BME280;52677;50.898;10.854;2023-04-06T02:32:39;98802.84;;;-3.87;100.00
65897;BME280;52677;50.898;10.854;2023-04-06T02:34:40;98802.06;;;-3.98;100.00
65897;BME280;52677;50.898;10.854;2023-04-06T02:36:40;98796.41;;;-4.01;100.00
65897;BME280;52677;50.898;10.854;2023-04-06T02:38:40;98795.59;;;-3.97;100.00
65897;BME280;52677;50.898;10.854;2023-04-06T02:40:41;98787.50;;;-4.02;100.00
65897;BME280;52677;50.898;10.854;2023-04-06T02:42:41;98789.41;;;-4.07;100.00
65897;BME280;52677;50.898;10.854;2023-04-06T02:44:42;98788.88;;;-4.09;100.00
65897;BME280;52677;50.898;10.854;2023-04-06T02:46:42;98798.63;;;-4.18;100.00
65897;BME280;52677;50.898;10.854;2023-04-06T02:48:43;98790.00;;;-4.20;100.00
65897;BME280;52677;50.898;10.854;2023-04-06T02:50:43;98794.03;;;-4.18;100.00
65897;BME280;52677;50.898;10.854;2023-04-06T02:52:44;98795.91;;;-4.13;100.00
65897;BME280;52677;50.898;10.854;2023-04-06T02:54:44;98801.59;;;-4.20;100.00
65897;BME280;52677;50.898;10.854;2023-04-06T02:56:45;98806.19;;;-4.26;100.00
65897;BME280;52677;50.898;10.854;2023-04-06T02:58:45;98794.59;;;-4.26;100.00
65897;BME280;52677;50.898;10.854;2023-04-06T03:00:45;98800.00;;;-4.21;100.00
65897;BME280;52677;50.898;10.854;2023-04-06T03:02:46;98796.19;;;-4.25;100.00
65897;BME280;52677;50.898;10.854;2023-04-06T03:04:46;98804.06;;;-4.29;100.00
65897;BME280;52677;50.898;10.854;2023-04-06T03:06:47;98788.66;;;-4.28;100.00
65897;BME280;52677;50.898;10.854;2023-04-06T03:08:47;98799.75;;;-4.30;100.00
65897;BME280;52677;50.898;10.854;2023-04-06T03:10:47;98804.06;;;-4.34;100.00
65897;BME280;52677;50.898;10.854;2023-04-06T03:12:48;98797.59;;;-4.38;100.00
65897;BME280;52677;50.898;10.854;2023-04-06T03:14:48;98793.81;;;-4.42;100.00
65897;BME280;52677;50.898;10.854;2023-04-06T03:16:48;98793.53;;;-4.50;100.00
65897;BME280;52677;50.898;10.854;2023-04-06T03:18:49;98797.06;;;-4.45;100.00
65897;BME280;52677;50.898;10.854;2023-04-06T03:20:50;98800.28;;;-4.43;100.00
65897;BME280;52677;50.898;10.854;2023-04-06T03:22:50;98797.31;;;-4.52;100.00
65897;BME280;52677;50.898;10.854;2023-04-06T03:24:50;98798.38;;;-4.47;100.00
65897;BME280;52677;50.898;10.854;2023-04-06T03:26:51;98801.38;;;-4.44;100.00
65897;BME280;52677;50.898;10.854;2023-04-06T03:28:51;98794.63;;;-4.46;100.00
65897;BME280;52677;50.898;10.854;2023-04-06T03:30:51;98809.22;;;-4.53;100.00
65897;BME280;52677;50.898;10.854;2023-04-06T03:32:52;98803.84;;;-4.63;100.00
65897;BME280;52677;50.898;10.854;2023-04-06T03:34:52;98796.78;;;-4.59;100.00
65897;BME280;52677;50.898;10.854;2023-04-06T03:36:53;98795.16;;;-4.65;100.00
65897;BME280;52677;50.898;10.854;2023-04-06T03:38:53;98793.56;;;-4.66;100.00
65897;BME280;52677;50.898;10.854;2023-04-06T03:40:54;98794.63;;;-4.67;100.00
65897;BME280;52677;50.898;10.854;2023-04-06T03:42:54;98792.47;;;-4.75;100.00
65897;BME280;52677;50.898;10.854;2023-04-06T03:44:54;98806.53;;;-4.78;100.00
65897;BME280;52677;50.898;10.854;2023-04-06T03:46:55;98799.25;;;-4.77;100.00
65897;BME280;52677;50.898;10.854;2023-04-06T03:48:55;98804.09;;;-4.79;100.00
65897;BME280;52677;50.898;10.854;2023-04-06T03:50:56;98807.06;;;-4.81;100.00
65897;BME280;52677;50.898;10.854;2023-04-06T03:52:56;98809.50;;;-4.79;100.00
65897;BME280;52677;50.898;10.854;2023-04-06T03:54:57;98803.81;;;-4.83;100.00
65897;BME280;52677;50.898;10.854;2023-04-06T03:56:57;98813.00;;;-4.79;100.00
65897;BME280;52677;50.898;10.854;2023-04-06T03:58:58;98813.25;;;-4.81;100.00
65897;BME280;52677;50.898;10.854;2023-04-06T04:00:58;98816.22;;;-4.72;100.00
65897;BME280;52677;50.898;10.854;2023-04-06T04:02:58;98818.13;;;-4.67;100.00
65897;BME280;52677;50.898;10.854;2023-04-06T04:04:59;98815.44;;;-4.77;100.00
65897;BME280;52677;50.898;10.854;2023-04-06T04:06:59;98816.50;;;-4.84;100.00
65897;BME280;52677;50.898;10.854;2023-04-06T04:09:00;98818.13;;;-4.88;100.00
65897;BME280;52677;50.898;10.854;2023-04-06T04:11:01;98818.94;;;-4.87;100.00
65897;BME280;52677;50.898;10.854;2023-04-06T04:13:01;98812.97;;;-4.89;100.00
65897;BME280;52677;50.898;10.854;2023-04-06T04:15:02;98819.47;;;-4.85;100.00
65897;BME280;52677;50.898;10.854;2023-04-06T04:17:03;98815.41;;;-4.83;100.00
65897;BME280;52677;50.898;10.854;2023-04-06T04:19:03;98823.53;;;-4.88;100.00
65897;BME280;52677;50.898;10.854;2023-04-06T04:21:03;98821.09;;;-4.94;100.00
65897;BME280;52677;50.898;10.854;2023-04-06T04:23:04;98823.78;;;-4.99;100.00
65897;BME280;52677;50.898;10.854;2023-04-06T04:25:04;98824.31;;;-4.97;100.00
65897;BME280;52677;50.898;10.854;2023-04-06T04:27:05;98822.97;;;-5.00;100.00
65897;BME280;52677;50.898;10.854;2023-04-06T04:29:06;98817.56;;;-5.00;100.00
65897;BME280;52677;50.898;10.854;2023-04-06T04:31:06;98820.28;;;-4.95;100.00
65897;BME280;52677;50.898;10.854;2023-04-06T04:33:07;98829.19;;;-4.99;100.00
65897;BME280;52677;50.898;10.854;2023-04-06T04:35:07;98822.69;;;-5.09;100.00
65897;BME280;52677;50.898;10.854;2023-04-06T04:37:08;98819.97;;;-5.14;100.00
65897;BME280;52677;50.898;10.854;2023-04-06T04:39:08;98824.81;;;-5.16;100.00
65897;BME280;52677;50.898;10.854;2023-04-06T04:41:09;98819.97;;;-5.24;100.00
65897;BME280;52677;50.898;10.854;2023-04-06T04:43:09;98828.59;;;-5.27;100.00
65897;BME280;52677;50.898;10.854;2023-04-06T04:45:10;98816.72;;;-5.36;100.00
65897;BME280;52677;50.898;10.854;2023-04-06T04:47:10;98824.50;;;-5.40;100.00
65897;BME280;52677;50.898;10.854;2023-04-06T04:49:10;98814.78;;;-5.46;100.00
65897;BME280;52677;50.898;10.854;2023-04-06T04:51:11;98834.47;;;-5.45;100.00
65897;BME280;52677;50.898;10.854;2023-04-06T04:53:11;98827.72;;;-5.48;100.00
65897;BME280;52677;50.898;10.854;2023-04-06T04:55:12;98829.88;;;-5.50;100.00
65897;BME280;52677;50.898;10.854;2023-04-06T04:57:12;98833.91;;;-5.47;100.00
65897;BME280;52677;50.898;10.854;2023-04-06T04:59:13;98837.72;;;-5.43;100.00
65897;BME280;52677;50.898;10.854;2023-04-06T05:01:13;98838.25;;;-5.41;100.00
65897;BME280;52677;50.898;10.854;2023-04-06T05:03:20;98838.28;;;-5.36;100.00
65897;BME280;52677;50.898;10.854;2023-04-06T05:05:22;98831.56;;;-5.28;100.00
65897;BME280;52677;50.898;10.854;2023-04-06T05:07:22;98837.22;;;-5.25;100.00
65897;BME280;52677;50.898;10.854;2023-04-06T05:09:22;98835.34;;;-5.24;100.00
65897;BME280;52677;50.898;10.854;2023-04-06T05:11:23;98837.22;;;-5.25;100.00
65897;BME280;52677;50.898;10.854;2023-04-06T05:13:23;98844.78;;;-5.27;100.00
65897;BME280;52677;50.898;10.854;2023-04-06T05:15:24;98825.59;;;-5.30;100.00
65897;BME280;52677;50.898;10.854;2023-04-06T05:17:24;98830.47;;;-5.32;100.00
65897;BME280;52677;50.898;10.854;2023-04-06T05:19:25;98828.56;;;-5.32;100.00
65897;BME280;52677;50.898;10.854;2023-04-06T05:21:26;98832.91;;;-5.26;100.00
65897;BME280;52677;50.898;10.854;2023-04-06T05:23:26;98829.94;;;-5.24;100.00
65897;BME280;52677;50.898;10.854;2023-04-06T05:25:27;98831.84;;;-5.20;100.00
65897;BME280;52677;50.898;10.854;2023-04-06T05:27:27;98831.31;;;-5.17;100.00
65897;BME280;52677;50.898;10.854;2023-04-06T05:29:27;98835.63;;;-5.16;100.00
65897;BME280;52677;50.898;10.854;2023-04-06T05:31:29;98835.09;;;-5.13;100.00
65897;BME280;52677;50.898;10.854;2023-04-06T05:33:29;98836.19;;;-5.09;100.00
65897;BME280;52677;50.898;10.854;2023-04-06T05:35:30;98836.72;;;-5.06;100.00
65897;BME280;52677;50.898;10.854;2023-04-06T05:37:30;98834.56;;;-4.99;100.00
65897;BME280;52677;50.898;10.854;2023-04-06T05:39:31;98831.09;;;-4.95;100.00
65897;BME280;52677;50.898;10.854;2023-04-06T05:41:31;98830.53;;;-4.92;100.00
65897;BME280;52677;50.898;10.854;2023-04-06T05:43:31;98833.50;;;-4.88;100.00
65897;BME280;52677;50.898;10.854;2023-04-06T05:45:32;98837.28;;;-4.84;100.00
65897;BME280;52677;50.898;10.854;2023-04-06T05:47:32;98834.84;;;-4.81;100.00
65897;BME280;52677;50.898;10.854;2023-04-06T05:49:33;98845.69;;;-4.70;100.00
65897;BME280;52677;50.898;10.854;2023-04-06T05:51:33;98841.63;;;-4.63;100.00
65897;BME280;52677;50.898;10.854;2023-04-06T05:53:33;98838.91;;;-4.58;100.00
65897;BME280;52677;50.898;10.854;2023-04-06T05:55:34;98842.69;;;-4.48;100.00
65897;BME280;52677;50.898;10.854;2023-04-06T05:57:34;98847.53;;;-4.40;100.00
65897;BME280;52677;50.898;10.854;2023-04-06T05:59:34;98840.78;;;-4.28;100.00
65897;BME280;52677;50.898;10.854;2023-04-06T06:01:35;98842.91;;;-4.14;100.00
65897;BME280;52677;50.898;10.854;2023-04-06T06:03:36;98840.22;;;-4.09;100.00
65897;BME280;52677;50.898;10.854;2023-04-06T06:05:36;98852.34;;;-4.02;100.00
65897;BME280;52677;50.898;10.854;2023-04-06T06:07:37;98841.56;;;-3.97;100.00
65897;BME280;52677;50.898;10.854;2023-04-06T06:09:37;98842.28;;;-3.81;100.00
65897;BME280;52677;50.898;10.854;2023-04-06T06:11:37;98843.66;;;-3.78;100.00
65897;BME280;52677;50.898;10.854;2023-04-06T06:13:38;98847.69;;;-3.71;100.00
65897;BME280;52677;50.898;10.854;2023-04-06T06:15:39;98851.97;;;-3.64;100.00
65897;BME280;52677;50.898;10.854;2023-04-06T06:17:39;98845.22;;;-3.62;100.00
65897;BME280;52677;50.898;10.854;2023-04-06T06:19:39;98846.28;;;-3.58;100.00
65897;BME280;52677;50.898;10.854;2023-04-06T06:21:40;98848.69;;;-3.51;100.00
65897;BME280;52677;50.898;10.854;2023-04-06T06:23:42;98850.56;;;-3.47;100.00
65897;BME280;52677;50.898;10.854;2023-04-06T06:25:43;98848.41;;;-3.45;100.00
65897;BME280;52677;50.898;10.854;2023-04-06T06:27:43;98848.63;;;-3.41;100.00
65897;BME280;52677;50.898;10.854;2023-04-06T06:29:43;98850.81;;;-3.38;100.00
65897;BME280;52677;50.898;10.854;2023-04-06T06:31:44;98851.56;;;-3.32;100.00
65897;BME280;52677;50.898;10.854;2023-04-06T06:33:44;98856.97;;;-3.27;100.00
65897;BME280;52677;50.898;10.854;2023-04-06T06:35:44;98847.75;;;-3.21;100.00
65897;BME280;52677;50.898;10.854;2023-04-06T06:37:45;98850.66;;;-3.13;100.00
65897;BME280;52677;50.898;10.854;2023-04-06T06:39:45;98850.88;;;-3.04;100.00
65897;BME280;52677;50.898;10.854;2023-04-06T06:41:45;98848.69;;;-2.97;100.00
65897;BME280;52677;50.898;10.854;2023-04-06T06:43:46;98850.78;;;-2.89;100.00
65897;BME280;52677;50.898;10.854;2023-04-06T06:45:46;98840.19;;;-2.85;100.00
65897;BME280;52677;50.898;10.854;2023-04-06T06:47:46;98849.34;;;-2.76;100.00
65897;BME280;52677;50.898;10.854;2023-04-06T06:49:47;98846.84;;;-2.67;100.00
65897;BME280;52677;50.898;10.854;2023-04-06T06:51:47;98833.78;;;-2.60;100.00
65897;BME280;52677;50.898;10.854;2023-04-06T06:53:48;98846.16;;;-2.49;100.00
65897;BME280;52677;50.898;10.854;2023-04-06T06:55:48;98834.97;;;-2.42;100.00
65897;BME280;52677;50.898;10.854;2023-04-06T06:57:48;98847.91;;;-2.34;100.00
65897;BME280;52677;50.898;10.854;2023-04-06T06:59:49;98848.13;;;-2.26;100.00
65897;BME280;52677;50.898;10.854;2023-04-06T07:01:49;98847.50;;;-2.17;100.00
65897;BME280;52677;50.898;10.854;2023-04-06T07:03:50;98845.78;;;-2.08;100.00
65897;BME280;52677;50.898;10.854;2023-04-06T07:05:50;98838.94;;;-2.01;100.00
65897;BME280;52677;50.898;10.854;2023-04-06T07:07:54;98842.38;;;-1.90;100.00
65897;BME280;52677;50.898;10.854;2023-04-06T07:09:55;98840.91;;;-1.82;100.00
65897;BME280;52677;50.898;10.854;2023-04-06T07:11:55;98831.78;;;-1.67;100.00
65897;BME280;52677;50.898;10.854;2023-04-06T07:13:56;98838.13;;;-1.53;100.00
65897;BME280;52677;50.898;10.854;2023-04-06T07:15:56;98833.69;;;-1.44;100.00
65897;BME280;52677;50.898;10.854;2023-04-06T07:17:57;98839.50;;;-1.32;100.00
65897;BME280;52677;50.898;10.854;2023-04-06T07:19:57;98839.94;;;-1.25;100.00
65897;BME280;52677;50.898;10.854;2023-04-06T07:21:57;98836.06;;;-1.19;100.00
65897;BME280;52677;50.898;10.854;2023-04-06T07:23:58;98837.31;;;-1.11;100.00
65897;BME280;52677;50.898;10.854;2023-04-06T07:25:58;98839.06;;;-1.01;100.00
65897;BME280;52677;50.898;10.854;2023-04-06T07:27:58;98841.13;;;-0.93;100.00
65897;BME280;52677;50.898;10.854;2023-04-06T07:29:59;98831.81;;;-0.87;100.00
65897;BME280;52677;50.898;10.854;2023-04-06T07:31:59;98837.03;;;-0.72;100.00
65897;BME280;52677;50.898;10.854;2023-04-06T07:33:59;98845.22;;;-0.58;100.00
65897;BME280;52677;50.898;10.854;2023-04-06T07:36:00;98845.59;;;-0.46;100.00
65897;BME280;52677;50.898;10.854;2023-04-06T07:38:00;98843.19;;;-0.34;100.00
65897;BME280;52677;50.898;10.854;2023-04-06T07:40:00;98837.59;;;-0.23;100.00
65897;BME280;52677;50.898;10.854;2023-04-06T07:42:01;98828.75;;;-0.15;100.00
65897;BME280;52677;50.898;10.854;2023-04-06T07:44:01;98829.38;;;-0.05;100.00
65897;BME280;52677;50.898;10.854;2023-04-06T07:46:01;98836.22;;;0.07;100.00
65897;BME280;52677;50.898;10.854;2023-04-06T07:48:02;98828.19;;;0.15;100.00
65897;BME280;52677;50.898;10.854;2023-04-06T07:50:03;98824.19;;;0.26;100.00
65897;BME280;52677;50.898;10.854;2023-04-06T07:52:03;98823.56;;;0.43;100.00
65897;BME280;52677;50.898;10.854;2023-04-06T07:54:04;98827.47;;;0.65;100.00
65897;BME280;52677;50.898;10.854;2023-04-06T07:56:04;98830.91;;;0.84;100.00
65897;BME280;52677;50.898;10.854;2023-04-06T07:58:05;98824.09;;;0.95;100.00
65897;BME280;52677;50.898;10.854;2023-04-06T08:00:06;98829.00;;;1.07;99.72
65897;BME280;52677;50.898;10.854;2023-04-06T08:02:06;98819.09;;;1.25;97.59
65897;BME280;52677;50.898;10.854;2023-04-06T08:04:07;98807.13;;;1.34;96.53
65897;BME280;52677;50.898;10.854;2023-04-06T08:06:07;98819.22;;;1.42;96.20
65897;BME280;52677;50.898;10.854;2023-04-06T08:08:08;98812.72;;;1.52;92.88
65897;BME280;52677;50.898;10.854;2023-04-06T08:10:08;98817.91;;;1.62;93.09
65897;BME280;52677;50.898;10.854;2023-04-06T08:12:09;98812.56;;;1.79;93.42
65897;BME280;52677;50.898;10.854;2023-04-06T08:14:09;98810.34;;;1.90;94.90
65897;BME280;52677;50.898;10.854;2023-04-06T08:16:10;98806.06;;;1.97;93.10
65897;BME280;52677;50.898;10.854;2023-04-06T08:18:10;98810.28;;;2.04;92.97
65897;BME280;52677;50.898;10.854;2023-04-06T08:20:11;98815.63;;;2.09;94.11
65897;BME280;52677;50.898;10.854;2023-04-06T08:22:11;98823.66;;;2.14;93.57
65897;BME280;52677;50.898;10.854;2023-04-06T08:24:12;98818.22;;;2.22;91.63
65897;BME280;52677;50.898;10.854;2023-04-06T08:26:12;98816.97;;;2.29;90.38
65897;BME280;52677;50.898;10.854;2023-04-06T08:28:13;98818.94;;;2.37;91.09
65897;BME280;52677;50.898;10.854;2023-04-06T08:30:13;98817.69;;;2.43;89.14
65897;BME280;52677;50.898;10.854;2023-04-06T08:32:15;98810.47;;;2.56;89.00
65897;BME280;52677;50.898;10.854;2023-04-06T08:34:15;98811.03;;;2.75;88.00
65897;BME280;52677;50.898;10.854;2023-04-06T08:36:16;98814.09;;;2.91;89.02
65897;BME280;52677;50.898;10.854;2023-04-06T08:38:18;98810.72;;;3.02;87.73
65897;BME280;52677;50.898;10.854;2023-04-06T08:40:18;98816.69;;;3.13;86.67
65897;BME280;52677;50.898;10.854;2023-04-06T08:42:20;98813.66;;;3.32;86.57
65897;BME280;52677;50.898;10.854;2023-04-06T08:44:21;98802.72;;;3.41;84.68
65897;BME280;52677;50.898;10.854;2023-04-06T08:46:21;98804.47;;;3.45;84.51
65897;BME280;52677;50.898;10.854;2023-04-06T08:48:22;98810.56;;;3.59;78.57
65897;BME280;52677;50.898;10.854;2023-04-06T08:50:24;98804.13;;;3.73;74.42
65897;BME280;52677;50.898;10.854;2023-04-06T08:52:25;98806.81;;;3.99;78.48
65897;BME280;52677;50.898;10.854;2023-04-06T08:54:26;98808.53;;;4.03;77.93
65897;BME280;52677;50.898;10.854;2023-04-06T08:56:27;98809.50;;;4.07;73.74
65897;BME280;52677;50.898;10.854;2023-04-06T08:58:32;98803.66;;;4.17;71.45
65897;BME280;52677;50.898;10.854;2023-04-06T09:00:33;98803.34;;;4.19;74.61
65897;BME280;52677;50.898;10.854;2023-04-06T09:02:39;98794.78;;;4.20;72.20
65897;BME280;52677;50.898;10.854;2023-04-06T09:04:41;98802.66;;;4.31;71.06
65897;BME280;52677;50.898;10.854;2023-04-06T09:06:41;98796.16;;;4.44;68.30
65897;BME280;52677;50.898;10.854;2023-04-06T09:08:42;98800.16;;;4.46;69.80
65897;BME280;52677;50.898;10.854;2023-04-06T09:10:42;98802.38;;;4.53;70.70
65897;BME280;52677;50.898;10.854;2023-04-06T09:12:43;98803.47;;;4.61;72.29
65897;BME280;52677;50.898;10.854;2023-04-06T09:14:44;98803.88;;;4.71;73.42
65897;BME280;52677;50.898;10.854;2023-04-06T09:16:45;98804.97;;;4.79;67.76
65897;BME280;52677;50.898;10.854;2023-04-06T09:18:46;98806.41;;;4.85;70.86
65897;BME280;52677;50.898;10.854;2023-04-06T09:21:05;98800.59;;;5.07;69.00
65897;BME280;52677;50.898;10.854;2023-04-06T09:23:06;98800.53;;;5.37;64.94
65897;BME280;52677;50.898;10.854;2023-04-06T09:25:07;98800.50;;;5.58;64.96
65897;BME280;52677;50.898;10.854;2023-04-06T09:27:08;98793.06;;;5.79;63.26
65897;BME280;52677;50.898;10.854;2023-04-06T09:29:08;98792.97;;;5.88;60.71
65897;BME280;52677;50.898;10.854;2023-04-06T09:31:09;98796.31;;;5.94;61.62
65897;BME280;52677;50.898;10.854;2023-04-06T09:33:12;98792.81;;;5.84;65.05
65897;BME280;52677;50.898;10.854;2023-04-06T09:35:12;98786.97;;;5.74;66.38
65897;BME280;52677;50.898;10.854;2023-04-06T09:37:17;98789.00;;;5.64;66.55
65897;BME280;52677;50.898;10.854;2023-04-06T09:39:21;98781.75;;;5.60;66.53
65897;BME280;52677;50.898;10.854;2023-04-06T09:41:33;98783.63;;;5.68;66.54
65897;BME280;52677;50.898;10.854;2023-04-06T09:43:33;98782.53;;;5.81;64.17
65897;BME280;52677;50.898;10.854;2023-04-06T09:45:33;98790.53;;;5.86;62.00
65897;BME280;52677;50.898;10.854;2023-04-06T09:47:36;98789.56;;;6.03;61.82
65897;BME280;52677;50.898;10.854;2023-04-06T09:49:37;98788.22;;;6.09;59.02
65897;BME280;52677;50.898;10.854;2023-04-06T09:51:46;98778.97;;;6.14;55.51
65897;BME280;52677;50.898;10.854;2023-04-06T09:53:52;98776.31;;;6.17;58.30
65897;BME280;52677;50.898;10.854;2023-04-06T09:55:57;98779.06;;;6.17;62.42
65897;BME280;52677;50.898;10.854;2023-04-06T09:58:06;98778.97;;;6.26;62.63
65897;BME280;52677;50.898;10.854;2023-04-06T10:00:08;98776.34;;;6.30;63.12
65897;BME280;52677;50.898;10.854;2023-04-06T10:02:13;98778.38;;;6.20;60.30
65897;BME280;52677;50.898;10.854;2023-04-06T10:04:32;98781.06;;;6.29;60.25
65897;BME280;52677;50.898;10.854;2023-04-06T10:06:37;98780.13;;;6.37;54.31
65897;BME280;52677;50.898;10.854;2023-04-06T10:08:40;98767.53;;;6.48;54.47
65897;BME280;52677;50.898;10.854;2023-04-06T10:10:42;98766.84;;;6.52;56.34
65897;BME280;52677;50.898;10.854;2023-04-06T10:12:43;98762.50;;;6.51;60.02
65897;BME280;52677;50.898;10.854;2023-04-06T10:14:44;98770.97;;;6.58;58.96
65897;BME280;52677;50.898;10.854;2023-04-06T10:16:46;98765.13;;;6.59;59.92
65897;BME280;52677;50.898;10.854;2023-04-06T10:18:53;98770.50;;;6.68;60.43
65897;BME280;52677;50.898;10.854;2023-04-06T10:21:01;98767.97;;;6.87;59.79
65897;BME280;52677;50.898;10.854;2023-04-06T10:23:09;98762.66;;;6.94;60.24
65897;BME280;52677;50.898;10.854;2023-04-06T10:25:14;98770.72;;;6.87;58.45
65897;BME280;52677;50.898;10.854;2023-04-06T10:27:14;98764.28;;;6.95;56.70
65897;BME280;52677;50.898;10.854;2023-04-06T10:29:15;98756.09;;;7.11;52.98